sensor_id;sensor_type;location;lat;lon;timestamp;pressure;altitude;pressure_sealevel;temperature;humidity
29169;BME280;16219;42.864;23.360;2023-04-10T00:00:50;96022.56;;;7.86;100.00
29169;BME280;16219;42.864;23.360;2023-04-10T00:03:22;96019.00;;;7.96;100.00
29169;BME280;16219;42.864;23.360;2023-04-10T00:05:49;96011.97;;;7.91;100.00
29169;BME280;16219;42.864;23.360;2023-04-10T00:08:21;96014.34;;;8.07;100.00
29169;BME280;16219;42.864;23.360;2023-04-10T00:10:48;96013.34;;;8.02;100.00
29169;BME280;16219;42.864;23.360;2023-04-10T00:13:16;96015.41;;;8.06;100.00
29169;BME280;16219;42.864;23.360;2023-04-10T00:15:42;96003.81;;;8.07;100.00
29169;BME280;16219;42.864;23.360;2023-04-10T00:18:10;95997.69;;;7.97;100.00
29169;BME280;16219;42.864;23.360;2023-04-10T00:20:37;95999.72;;;8.00;100.00
29169;BME280;16219;42.864;23.360;2023-04-10T00:23:05;95999.16;;;8.04;100.00
29169;BME280;16219;42.864;23.360;2023-04-10T00:25:33;95993.41;;;8.01;100.00
29169;BME280;16219;42.864;23.360;2023-04-10T00:28:00;95991.97;;;8.09;100.00
29169;BME280;16219;42.864;23.360;2023-04-10T00:30:27;95992.53;;;8.06;100.00
29169;BME280;16219;42.864;23.360;2023-04-10T00:32:54;95982.41;;;7.99;100.00
29169;BME280;16219;42.864;23.360;2023-04-10T00:35:21;95989.78;;;7.97;100.00
29169;BME280;16219;42.864;23.360;2023-04-10T00:37:48;95978.91;;;7.90;100.00
29169;BME280;16219;42.864;23.360;2023-04-10T00:40:15;95975.00;;;8.01;100.00
29169;BME280;16219;42.864;23.360;2023-04-10T00:42:44;95976.44;;;7.94;100.00
29169;BME280;16219;42.864;23.360;2023-04-10T00:45:11;95968.22;;;8.00;100.00
29169;BME280;16219;42.864;23.360;2023-04-10T00:47:37;95969.56;;;7.98;100.00
29169;BME280;16219;42.864;23.360;2023-04-10T00:50:06;95969.38;;;7.94;100.00
29169;BME280;16219;42.864;23.360;2023-04-10T00:52:33;95973.03;;;7.93;100.00
29169;BME280;16219;42.864;23.360;2023-04-10T00:55:01;95968.00;;;7.97;100.00
29169;BME280;16219;42.864;23.360;2023-04-10T00:57:28;95969.75;;;8.01;100.00
29169;BME280;16219;42.864;23.360;2023-04-10T00:59:57;95956.72;;;7.96;100.00
29169;BME280;16219;42.864;23.360;2023-04-10T01:02:24;95957.88;;;7.90;100.00
29169;BME280;16219;42.864;23.360;2023-04-10T01:04:51;95951.56;;;7.91;100.00
29169;BME280;16219;42.864;23.360;2023-04-10T01:07:28;95957.78;;;7.95;100.00
29169;BME280;16219;42.864;23.360;2023-04-10T01:10:05;95958.88;;;7.94;100.00
29169;BME280;16219;42.864;23.360;2023-04-10T01:12:45;95950.97;;;7.94;100.00
29169;BME280;16219;42.864;23.360;2023-04-10T01:15:20;95947.94;;;7.87;100.00
29169;BME280;16219;42.864;23.360;2023-04-10T01:17:50;95942.69;;;7.87;100.00
29169;BME280;16219;42.864;23.360;2023-04-10T01:20:20;95943.56;;;7.83;100.00
29169;BME280;16219;42.864;23.360;2023-04-10T01:23:03;95942.81;;;7.63;100.00
29169;BME280;16219;42.864;23.360;2023-04-10T01:25:40;95946.41;;;7.67;100.00
29169;BME280;16219;42.864;23.360;2023-04-10T01:28:27;95937.59;;;7.77;100.00
29169;BME280;16219;42.864;23.360;2023-04-10T01:31:00;95940.47;;;7.62;100.00
29169;BME280;16219;42.864;23.360;2023-04-10T01:33:33;95933.28;;;7.67;100.00
29169;BME280;16219;42.864;23.360;2023-04-10T01:36:03;95941.09;;;7.72;100.00
29169;BME280;16219;42.864;23.360;2023-04-10T01:38:32;95946.34;;;7.72;100.00
29169;BME280;16219;42.864;23.360;2023-04-10T01:41:00;95948.78;;;7.69;100.00
29169;BME280;16219;42.864;23.360;2023-04-10T01:43:30;95945.16;;;7.65;100.00
29169;BME280;16219;42.864;23.360;2023-04-10T01:46:02;95938.19;;;7.74;100.00
29169;BME280;16219;42.864;23.360;2023-04-10T01:48:30;95948.41;;;7.75;100.00
29169;BME280;16219;42.864;23.360;2023-04-10T01:50:59;95958.69;;;7.72;100.00
29169;BME280;16219;42.864;23.360;2023-04-10T01:53:27;95949.78;;;7.54;100.00
29169;BME280;16219;42.864;23.360;2023-04-10T01:55:56;95938.69;;;7.43;100.00
29169;BME280;16219;42.864;23.360;2023-04-10T01:58:24;95937.75;;;7.34;100.00
29169;BME280;16219;42.864;23.360;2023-04-10T02:00:55;95934.94;;;7.31;100.00
29169;BME280;16219;42.864;23.360;2023-04-10T02:03:23;95933.09;;;7.31;100.00
29169;BME280;16219;42.864;23.360;2023-04-10T02:06:08;95919.78;;;7.41;100.00
29169;BME280;16219;42.864;23.360;2023-04-10T02:08:41;95928.31;;;7.52;100.00
29169;BME280;16219;42.864;23.360;2023-04-10T02:11:13;95929.09;;;7.53;100.00
29169;BME280;16219;42.864;23.360;2023-04-10T02:13:41;95919.44;;;7.48;100.00
29169;BME280;16219;42.864;23.360;2023-04-10T02:16:09;95915.34;;;7.56;100.00
29169;BME280;16219;42.864;23.360;2023-04-10T02:18:41;95923.81;;;7.53;100.00
29169;BME280;16219;42.864;23.360;2023-04-10T02:21:09;95920.78;;;7.45;100.00
29169;BME280;16219;42.864;23.360;2023-04-10T02:23:36;95919.63;;;7.51;100.00
29169;BME280;16219;42.864;23.360;2023-04-10T02:26:07;95913.19;;;7.44;100.00
29169;BME280;16219;42.864;23.360;2023-04-10T02:28:36;95913.13;;;7.30;100.00
29169;BME280;16219;42.864;23.360;2023-04-10T02:31:05;95905.00;;;7.32;100.00
29169;BME280;16219;42.864;23.360;2023-04-10T02:33:32;95906.75;;;7.36;100.00
29169;BME280;16219;42.864;23.360;2023-04-10T02:36:01;95904.59;;;7.38;100.00
29169;BME280;16219;42.864;23.360;2023-04-10T02:38:28;95909.38;;;7.36;100.00
29169;BME280;16219;42.864;23.360;2023-04-10T02:40:55;95896.81;;;7.52;100.00
29169;BME280;16219;42.864;23.360;2023-04-10T02:43:22;95897.56;;;7.53;100.00
29169;BME280;16219;42.864;23.360;2023-04-10T02:45:50;95893.38;;;7.51;100.00
29169;BME280;16219;42.864;23.360;2023-04-10T02:48:24;95892.31;;;7.53;100.00
29169;BME280;16219;42.864;23.360;2023-04-10T02:50:56;95894.72;;;7.35;100.00
29169;BME280;16219;42.864;23.360;2023-04-10T02:53:25;95889.06;;;7.42;100.00
29169;BME280;16219;42.864;23.360;2023-04-10T02:55:56;95899.56;;;7.42;100.00
29169;BME280;16219;42.864;23.360;2023-04-10T02:58:23;95891.44;;;7.43;100.00
29169;BME280;16219;42.864;23.360;2023-04-10T03:00:53;95895.09;;;7.42;100.00
29169;BME280;16219;42.864;23.360;2023-04-10T03:03:47;95899.56;;;7.42;100.00
29169;BME280;16219;42.864;23.360;2023-04-10T03:06:22;95893.13;;;7.34;100.00
29169;BME280;16219;42.864;23.360;2023-04-10T03:08:53;95893.72;;;7.31;100.00
29169;BME280;16219;42.864;23.360;2023-04-10T03:11:20;95897.00;;;7.23;100.00
29169;BME280;16219;42.864;23.360;2023-04-10T03:13:48;95904.09;;;7.04;100.00
29169;BME280;16219;42.864;23.360;2023-04-10T03:16:15;95894.75;;;6.97;100.00
29169;BME280;16219;42.864;23.360;2023-04-10T03:18:43;95904.78;;;6.90;100.00
29169;BME280;16219;42.864;23.360;2023-04-10T03:21:10;95907.72;;;6.89;100.00
29169;BME280;16219;42.864;23.360;2023-04-10T03:23:37;95913.84;;;6.79;100.00
29169;BME280;16219;42.864;23.360;2023-04-10T03:26:06;95912.81;;;6.80;100.00
29169;BME280;16219;42.864;23.360;2023-04-10T03:28:36;95914.06;;;6.83;100.00
29169;BME280;16219;42.864;23.360;2023-04-10T03:31:04;95913.22;;;6.87;100.00
29169;BME280;16219;42.864;23.360;2023-04-10T03:33:34;95918.25;;;6.84;100.00
29169;BME280;16219;42.864;23.360;2023-04-10T03:36:02;95914.06;;;6.83;100.00
29169;BME280;16219;42.864;23.360;2023-04-10T03:38:29;95916.28;;;6.94;100.00
29169;BME280;16219;42.864;23.360;2023-04-10T03:40:56;95920.97;;;6.97;100.00
29169;BME280;16219;42.864;23.360;2023-04-10T03:43:28;95918.91;;;6.94;100.00
29169;BME280;16219;42.864;23.360;2023-04-10T03:45:55;95926.22;;;6.97;100.00
29169;BME280;16219;42.864;23.360;2023-04-10T03:48:23;95935.72;;;6.93;100.00
29169;BME280;16219;42.864;23.360;2023-04-10T03:50:53;95935.34;;;6.81;100.00
29169;BME280;16219;42.864;23.360;2023-04-10T03:53:21;95933.72;;;6.85;100.00
29169;BME280;16219;42.864;23.360;2023-04-10T03:55:50;95931.66;;;6.82;100.00
29169;BME280;16219;42.864;23.360;2023-04-10T03:58:17;95935.97;;;6.92;100.00
29169;BME280;16219;42.864;23.360;2023-04-10T04:00:46;95937.03;;;6.91;100.00
29169;BME280;16219;42.864;23.360;2023-04-10T04:03:23;95941.72;;;6.94;100.00
29169;BME280;16219;42.864;23.360;2023-04-10T04:06:13;95936.19;;;6.95;100.00
29169;BME280;16219;42.864;23.360;2023-04-10T04:08:50;95941.50;;;6.90;100.00
29169;BME280;16219;42.864;23.360;2023-04-10T04:11:27;95937.41;;;6.84;100.00
29169;BME280;16219;42.864;23.360;2023-04-10T04:13:54;95944.84;;;6.96;100.00
29169;BME280;16219;42.864;23.360;2023-04-10T04:16:43;95948.66;;;7.04;100.00
29169;BME280;16219;42.864;23.360;2023-04-10T04:19:31;95950.59;;;7.17;100.00
29169;BME280;16219;42.864;23.360;2023-04-10T04:22:24;95943.72;;;7.21;100.00
29169;BME280;16219;42.864;23.360;2023-04-10T04:25:10;95942.06;;;7.25;100.00
29169;BME280;16219;42.864;23.360;2023-04-10T04:27:55;95941.50;;;7.28;100.00
29169;BME280;16219;42.864;23.360;2023-04-10T04:30:31;95944.84;;;7.34;100.00
29169;BME280;16219;42.864;23.360;2023-04-10T04:33:29;95948.19;;;7.39;100.00
29169;BME280;16219;42.864;23.360;2023-04-10T04:36:08;95940.78;;;7.41;100.00
29169;BME280;16219;42.864;23.360;2023-04-10T04:38:56;95947.94;;;7.55;100.00
29169;BME280;16219;42.864;23.360;2023-04-10T04:41:36;95945.97;;;7.46;100.00
29169;BME280;16219;42.864;23.360;2023-04-10T04:44:05;95949.00;;;7.54;100.00
29169;BME280;16219;42.864;23.360;2023-04-10T04:47:02;95951.56;;;7.59;100.00
29169;BME280;16219;42.864;23.360;2023-04-10T04:49:50;95956.50;;;7.60;100.00
29169;BME280;16219;42.864;23.360;2023-04-10T04:52:46;95956.72;;;7.64;100.00
29169;BME280;16219;42.864;23.360;2023-04-10T04:55:26;95966.00;;;7.75;100.00
29169;BME280;16219;42.864;23.360;2023-04-10T04:58:16;95963.25;;;7.66;100.00
29169;BME280;16219;42.864;23.360;2023-04-10T05:01:07;95968.78;;;7.65;100.00
29169;BME280;16219;42.864;23.360;2023-04-10T05:03:53;95973.59;;;7.76;100.00
29169;BME280;16219;42.864;23.360;2023-04-10T05:06:40;95981.75;;;7.75;100.00
29169;BME280;16219;42.864;23.360;2023-04-10T05:09:15;95979.47;;;7.87;100.00
29169;BME280;16219;42.864;23.360;2023-04-10T05:11:52;95971.84;;;7.86;100.00
29169;BME280;16219;42.864;23.360;2023-04-10T05:14:38;95977.53;;;7.93;100.00
29169;BME280;16219;42.864;23.360;2023-04-10T05:17:17;95981.63;;;7.99;100.00
29169;BME280;16219;42.864;23.360;2023-04-10T05:19:54;95977.72;;;7.96;100.00
29169;BME280;16219;42.864;23.360;2023-04-10T05:22:43;95975.69;;;7.93;100.00
29169;BME280;16219;42.864;23.360;2023-04-10T05:25:33;95980.84;;;7.98;100.00
29169;BME280;16219;42.864;23.360;2023-04-10T05:28:21;95982.81;;;8.07;100.00
29169;BME280;16219;42.864;23.360;2023-04-10T05:31:20;95977.72;;;7.96;100.00
29169;BME280;16219;42.864;23.360;2023-04-10T05:33:56;95984.63;;;7.92;100.00
29169;BME280;16219;42.864;23.360;2023-04-10T05:36:36;95985.13;;;7.94;100.00
29169;BME280;16219;42.864;23.360;2023-04-10T05:39:21;95982.22;;;8.10;100.00
29169;BME280;16219;42.864;23.360;2023-04-10T05:42:07;95984.19;;;8.18;100.00
29169;BME280;16219;42.864;23.360;2023-04-10T05:44:47;95986.34;;;8.16;100.00
29169;BME280;16219;42.864;23.360;2023-04-10T05:47:38;95980.03;;;8.17;100.00
29169;BME280;16219;42.864;23.360;2023-04-10T05:50:16;95987.81;;;8.22;100.00
29169;BME280;16219;42.864;23.360;2023-04-10T05:53:11;95979.28;;;8.44;100.00
29169;BME280;16219;42.864;23.360;2023-04-10T05:55:59;95975.91;;;8.71;100.00
29169;BME280;16219;42.864;23.360;2023-04-10T05:58:45;95971.41;;;8.85;100.00
29169;BME280;16219;42.864;23.360;2023-04-10T06:01:33;95974.50;;;8.87;100.00
29169;BME280;16219;42.864;23.360;2023-04-10T06:04:02;95983.66;;;9.04;100.00
29169;BME280;16219;42.864;23.360;2023-04-10T06:06:30;95982.47;;;9.10;100.00
29169;BME280;16219;42.864;23.360;2023-04-10T06:08:57;95985.13;;;9.10;100.00
29169;BME280;16219;42.864;23.360;2023-04-10T06:11:26;95984.63;;;9.08;100.00
29169;BME280;16219;42.864;23.360;2023-04-10T06:13:55;95982.38;;;9.15;100.00
29169;BME280;16219;42.864;23.360;2023-04-10T06:16:28;95986.56;;;9.16;100.00
29169;BME280;16219;42.864;23.360;2023-04-10T06:18:56;95973.28;;;9.21;100.00
29169;BME280;16219;42.864;23.360;2023-04-10T06:21:23;95975.34;;;9.46;100.00
29169;BME280;16219;42.864;23.360;2023-04-10T06:23:50;95981.31;;;9.74;100.00
29169;BME280;16219;42.864;23.360;2023-04-10T06:26:18;95986.59;;;10.06;100.00
29169;BME280;16219;42.864;23.360;2023-04-10T06:28:46;95978.56;;;10.33;100.00
29169;BME280;16219;42.864;23.360;2023-04-10T06:31:18;95966.94;;;10.34;100.00
29169;BME280;16219;42.864;23.360;2023-04-10T06:33:47;95967.28;;;10.41;100.00
29169;BME280;16219;42.864;23.360;2023-04-10T06:36:14;95964.69;;;10.50;100.00
29169;BME280;16219;42.864;23.360;2023-04-10T06:38:46;95977.38;;;10.48;100.00
29169;BME280;16219;42.864;23.360;2023-04-10T06:41:13;95978.31;;;10.43;100.00
29169;BME280;16219;42.864;23.360;2023-04-10T06:43:40;95981.13;;;10.47;100.00
29169;BME280;16219;42.864;23.360;2023-04-10T06:46:08;95988.03;;;10.34;100.00
29169;BME280;16219;42.864;23.360;2023-04-10T06:48:35;95976.88;;;10.15;100.00
29169;BME280;16219;42.864;23.360;2023-04-10T06:51:03;95974.38;;;10.32;100.00
29169;BME280;16219;42.864;23.360;2023-04-10T06:53:30;95981.25;;;10.42;100.00
29169;BME280;16219;42.864;23.360;2023-04-10T06:55:57;95976.16;;;10.23;100.00
29169;BME280;16219;42.864;23.360;2023-04-10T06:58:24;95979.63;;;10.32;100.00
29169;BME280;16219;42.864;23.360;2023-04-10T07:00:51;95987.97;;;10.57;100.00
29169;BME280;16219;42.864;23.360;2023-04-10T07:03:20;95987.38;;;10.60;100.00
29169;BME280;16219;42.864;23.360;2023-04-10T07:05:47;95985.50;;;10.60;100.00
29169;BME280;16219;42.864;23.360;2023-04-10T07:08:14;95979.50;;;10.77;100.00
29169;BME280;16219;42.864;23.360;2023-04-10T07:10:42;95983.25;;;10.76;100.00
29169;BME280;16219;42.864;23.360;2023-04-10T07:13:09;95990.84;;;10.77;100.00
29169;BME280;16219;42.864;23.360;2023-04-10T07:15:36;95981.22;;;10.82;100.00
29169;BME280;16219;42.864;23.360;2023-04-10T07:18:03;95983.41;;;10.80;100.00
29169;BME280;16219;42.864;23.360;2023-04-10T07:20:32;95982.00;;;10.82;100.00
29169;BME280;16219;42.864;23.360;2023-04-10T07:22:59;95984.56;;;11.05;100.00
29169;BME280;16219;42.864;23.360;2023-04-10T07:25:26;95979.31;;;11.31;100.00
29169;BME280;16219;42.864;23.360;2023-04-10T07:27:53;95976.66;;;11.31;100.00
29169;BME280;16219;42.864;23.360;2023-04-10T07:30:20;95972.31;;;11.35;100.00
29169;BME280;16219;42.864;23.360;2023-04-10T07:32:47;95974.47;;;11.41;100.00
29169;BME280;16219;42.864;23.360;2023-04-10T07:35:14;95970.78;;;11.60;100.00
29169;BME280;16219;42.864;23.360;2023-04-10T07:37:43;95972.66;;;11.85;100.00
29169;BME280;16219;42.864;23.360;2023-04-10T07:40:14;95978.97;;;12.01;100.00
29169;BME280;16219;42.864;23.360;2023-04-10T07:42:42;95971.69;;;11.98;100.00
29169;BME280;16219;42.864;23.360;2023-04-10T07:45:09;95972.91;;;12.01;100.00
29169;BME280;16219;42.864;23.360;2023-04-10T07:47:36;95978.34;;;12.05;100.00
29169;BME280;16219;42.864;23.360;2023-04-10T07:50:05;95976.50;;;11.79;100.00
29169;BME280;16219;42.864;23.360;2023-04-10T07:52:32;95977.59;;;11.78;100.00
29169;BME280;16219;42.864;23.360;2023-04-10T07:55:01;95979.16;;;11.88;100.00
29169;BME280;16219;42.864;23.360;2023-04-10T07:57:29;95978.69;;;11.77;100.00
29169;BME280;16219;42.864;23.360;2023-04-10T07:59:57;95975.13;;;11.64;100.00
29169;BME280;16219;42.864;23.360;2023-04-10T08:02:24;95975.91;;;11.65;100.00
29169;BME280;16219;42.864;23.360;2023-04-10T08:04:51;95976.34;;;11.75;100.00
29169;BME280;16219;42.864;23.360;2023-04-10T08:07:19;95973.41;;;11.94;100.00
29169;BME280;16219;42.864;23.360;2023-04-10T08:09:46;95976.94;;;12.16;100.00
29169;BME280;16219;42.864;23.360;2023-04-10T08:12:15;95972.41;;;12.25;100.00
29169;BME280;16219;42.864;23.360;2023-04-10T08:14:42;95965.06;;;12.31;100.00
29169;BME280;16219;42.864;23.360;2023-04-10T08:17:09;95968.34;;;12.28;100.00
29169;BME280;16219;42.864;23.360;2023-04-10T08:19:40;95969.13;;;12.28;98.78
29169;BME280;16219;42.864;23.360;2023-04-10T08:22:07;95961.25;;;11.76;96.46
29169;BME280;16219;42.864;23.360;2023-04-10T08:24:34;95968.13;;;11.94;100.00
29169;BME280;16219;42.864;23.360;2023-04-10T08:27:01;95964.97;;;12.10;90.62
29169;BME280;16219;42.864;23.360;2023-04-10T08:29:30;95964.78;;;12.15;98.67
29169;BME280;16219;42.864;23.360;2023-04-10T08:31:57;95970.38;;;12.22;98.73
29169;BME280;16219;42.864;23.360;2023-04-10T08:34:25;95967.13;;;12.16;95.07
29169;BME280;16219;42.864;23.360;2023-04-10T08:36:52;95956.84;;;12.15;99.20
29169;BME280;16219;42.864;23.360;2023-04-10T08:39:19;95955.13;;;12.19;97.58
29169;BME280;16219;42.864;23.360;2023-04-10T08:41:46;95964.69;;;12.03;93.76
29169;BME280;16219;42.864;23.360;2023-04-10T08:44:14;95947.75;;;11.77;94.23
29169;BME280;16219;42.864;23.360;2023-04-10T08:46:43;95960.97;;;11.77;89.05
29169;BME280;16219;42.864;23.360;2023-04-10T08:49:16;95957.25;;;11.87;82.68
29169;BME280;16219;42.864;23.360;2023-04-10T08:51:54;95950.06;;;11.96;93.38
29169;BME280;16219;42.864;23.360;2023-04-10T08:54:26;95947.88;;;12.07;84.92
29169;BME280;16219;42.864;23.360;2023-04-10T08:56:55;95946.13;;;12.20;91.11
29169;BME280;16219;42.864;23.360;2023-04-10T08:59:23;95944.66;;;12.31;89.05
29169;BME280;16219;42.864;23.360;2023-04-10T09:01:51;95937.13;;;12.50;92.29
29169;BME280;16219;42.864;23.360;2023-04-10T09:04:19;95935.72;;;12.53;93.23
29169;BME280;16219;42.864;23.360;2023-04-10T09:06:46;95941.22;;;12.39;83.75
29169;BME280;16219;42.864;23.360;2023-04-10T09:09:14;95934.28;;;12.17;92.61
29169;BME280;16219;42.864;23.360;2023-04-10T09:12:05;95931.69;;;12.09;81.99
29169;BME280;16219;42.864;23.360;2023-04-10T09:14:33;95934.53;;;11.77;93.10
29169;BME280;16219;42.864;23.360;2023-04-10T09:17:22;95938.75;;;11.44;94.35
29169;BME280;16219;42.864;23.360;2023-04-10T09:19:51;95948.84;;;11.24;100.00
29169;BME280;16219;42.864;23.360;2023-04-10T09:22:28;95952.41;;;11.20;100.00
29169;BME280;16219;42.864;23.360;2023-04-10T09:24:55;95953.19;;;11.12;100.00
29169;BME280;16219;42.864;23.360;2023-04-10T09:27:28;95964.50;;;11.04;100.00
29169;BME280;16219;42.864;23.360;2023-04-10T09:29:57;95962.47;;;10.83;100.00
29169;BME280;16219;42.864;23.360;2023-04-10T09:32:38;95963.63;;;10.60;100.00
29169;BME280;16219;42.864;23.360;2023-04-10T09:35:05;95958.88;;;10.39;100.00
29169;BME280;16219;42.864;23.360;2023-04-10T09:37:33;95953.75;;;10.34;100.00
29169;BME280;16219;42.864;23.360;2023-04-10T09:40:01;95959.75;;;10.26;100.00
29169;BME280;16219;42.864;23.360;2023-04-10T09:42:30;95960.75;;;10.08;100.00
29169;BME280;16219;42.864;23.360;2023-04-10T09:44:59;95958.97;;;9.94;100.00
29169;BME280;16219;42.864;23.360;2023-04-10T09:47:26;95945.84;;;10.03;100.00
29169;BME280;16219;42.864;23.360;2023-04-10T09:49:56;95951.09;;;10.03;100.00
29169;BME280;16219;42.864;23.360;2023-04-10T09:52:27;95946.28;;;10.05;100.00
29169;BME280;16219;42.864;23.360;2023-04-10T09:54:55;95946.25;;;9.96;100.00
29169;BME280;16219;42.864;23.360;2023-04-10T09:57:23;95944.78;;;10.13;100.00
29169;BME280;16219;42.864;23.360;2023-04-10T09:59:52;95939.06;;;10.19;100.00
29169;BME280;16219;42.864;23.360;2023-04-10T10:02:20;95944.91;;;10.30;100.00
29169;BME280;16219;42.864;23.360;2023-04-10T10:04:48;95938.53;;;10.31;100.00
29169;BME280;16219;42.864;23.360;2023-04-10T10:07:18;95934.28;;;10.61;100.00
29169;BME280;16219;42.864;23.360;2023-04-10T10:09:46;95936.97;;;10.79;100.00
29169;BME280;16219;42.864;23.360;2023-04-10T10:12:16;95937.94;;;10.91;100.00
29169;BME280;16219;42.864;23.360;2023-04-10T10:14:49;95937.81;;;10.96;100.00
29169;BME280;16219;42.864;23.360;2023-04-10T10:17:23;95939.34;;;10.97;100.00
29169;BME280;16219;42.864;23.360;2023-04-10T10:19:58;95935.03;;;11.19;100.00
29169;BME280;16219;42.864;23.360;2023-04-10T10:22:28;95927.56;;;11.30;100.00
29169;BME280;16219;42.864;23.360;2023-04-10T10:24:58;95911.84;;;11.50;100.00
29169;BME280;16219;42.864;23.360;2023-04-10T10:27:27;95920.84;;;11.84;100.00
29169;BME280;16219;42.864;23.360;2023-04-10T10:29:58;95911.28;;;12.09;100.00
29169;BME280;16219;42.864;23.360;2023-04-10T10:32:26;95910.56;;;12.38;100.00
29169;BME280;16219;42.864;23.360;2023-04-10T10:34:53;95906.47;;;12.49;100.00
29169;BME280;16219;42.864;23.360;2023-04-10T10:37:22;95912.13;;;12.69;100.00
29169;BME280;16219;42.864;23.360;2023-04-10T10:39:58;95903.00;;;12.87;100.00
29169;BME280;16219;42.864;23.360;2023-04-10T10:42:33;95893.81;;;13.06;100.00
29169;BME280;16219;42.864;23.360;2023-04-10T10:45:08;95899.13;;;13.47;86.32
29169;BME280;16219;42.864;23.360;2023-04-10T10:47:41;95895.81;;;13.50;100.00
29169;BME280;16219;42.864;23.360;2023-04-10T10:50:10;95883.88;;;13.44;100.00
29169;BME280;16219;42.864;23.360;2023-04-10T10:52:42;95879.91;;;13.50;96.27
29169;BME280;16219;42.864;23.360;2023-04-10T10:55:32;95882.41;;;13.68;85.52
29169;BME280;16219;42.864;23.360;2023-04-10T10:58:02;95873.16;;;13.41;85.84
29169;BME280;16219;42.864;23.360;2023-04-10T11:01:03;95878.31;;;13.37;89.78
29169;BME280;16219;42.864;23.360;2023-04-10T11:03:31;95871.16;;;12.96;85.65
29169;BME280;16219;42.864;23.360;2023-04-10T11:06:00;95863.56;;;12.35;88.32
29169;BME280;16219;42.864;23.360;2023-04-10T11:08:36;95879.56;;;12.09;93.20
29169;BME280;16219;42.864;23.360;2023-04-10T11:11:07;95885.84;;;12.34;98.78
29169;BME280;16219;42.864;23.360;2023-04-10T11:13:36;95875.41;;;11.99;100.00
29169;BME280;16219;42.864;23.360;2023-04-10T11:16:05;95859.38;;;12.05;93.34
29169;BME280;16219;42.864;23.360;2023-04-10T11:19:00;95858.50;;;12.21;94.30
29169;BME280;16219;42.864;23.360;2023-04-10T11:21:28;95847.31;;;12.24;93.25
29169;BME280;16219;42.864;23.360;2023-04-10T11:24:03;95851.63;;;12.59;97.03
29169;BME280;16219;42.864;23.360;2023-04-10T11:26:41;95848.81;;;12.85;85.96
29169;BME280;16219;42.864;23.360;2023-04-10T11:29:32;95835.91;;;12.83;82.77
29169;BME280;16219;42.864;23.360;2023-04-10T11:32:00;95835.88;;;12.62;82.13
29169;BME280;16219;42.864;23.360;2023-04-10T11:34:28;95835.56;;;12.64;83.18
29169;BME280;16219;42.864;23.360;2023-04-10T11:36:58;95830.66;;;12.74;86.51
29169;BME280;16219;42.864;23.360;2023-04-10T11:39:28;95831.81;;;12.86;89.03
29169;BME280;16219;42.864;23.360;2023-04-10T11:41:57;95835.03;;;12.49;81.54
29169;BME280;16219;42.864;23.360;2023-04-10T11:44:29;95858.88;;;12.11;88.64
29169;BME280;16219;42.864;23.360;2023-04-10T11:46:57;95862.63;;;12.01;87.67
29169;BME280;16219;42.864;23.360;2023-04-10T11:49:30;95842.78;;;11.78;89.41
29169;BME280;16219;42.864;23.360;2023-04-10T11:51:57;95844.66;;;11.77;78.73
29169;BME280;16219;42.864;23.360;2023-04-10T11:54:25;95812.81;;;11.74;87.25
29169;BME280;16219;42.864;23.360;2023-04-10T11:56:59;95832.63;;;11.97;93.35
29169;BME280;16219;42.864;23.360;2023-04-10T11:59:27;95825.72;;;12.14;88.79
29169;BME280;16219;42.864;23.360;2023-04-10T12:02:04;95815.22;;;11.96;91.23
29169;BME280;16219;42.864;23.360;2023-04-10T12:04:32;95820.63;;;12.09;92.54
29169;BME280;16219;42.864;23.360;2023-04-10T12:06:59;95812.00;;;12.20;98.67
29169;BME280;16219;42.864;23.360;2023-04-10T12:09:26;95823.22;;;12.17;95.74
29169;BME280;16219;42.864;23.360;2023-04-10T12:11:55;95813.56;;;12.21;83.86
29169;BME280;16219;42.864;23.360;2023-04-10T12:14:29;95817.59;;;12.19;96.93
29169;BME280;16219;42.864;23.360;2023-04-10T12:16:57;95812.72;;;12.30;97.89
29169;BME280;16219;42.864;23.360;2023-04-10T12:19:24;95801.31;;;12.38;88.63
29169;BME280;16219;42.864;23.360;2023-04-10T12:21:51;95812.25;;;12.36;94.84
29169;BME280;16219;42.864;23.360;2023-04-10T12:24:39;95806.47;;;12.34;84.51
29169;BME280;16219;42.864;23.360;2023-04-10T12:27:07;95825.63;;;12.31;88.75
29169;BME280;16219;42.864;23.360;2023-04-10T12:29:36;95804.78;;;12.30;89.54
29169;BME280;16219;42.864;23.360;2023-04-10T12:32:07;95807.09;;;12.31;84.33
29169;BME280;16219;42.864;23.360;2023-04-10T12:34:35;95802.34;;;12.24;91.10
29169;BME280;16219;42.864;23.360;2023-04-10T12:37:02;95808.25;;;12.21;85.34
29169;BME280;16219;42.864;23.360;2023-04-10T12:39:30;95813.22;;;12.23;90.90
29169;BME280;16219;42.864;23.360;2023-04-10T12:42:10;95815.28;;;12.17;91.30
29169;BME280;16219;42.864;23.360;2023-04-10T12:44:50;95829.00;;;11.72;94.03
29169;BME280;16219;42.864;23.360;2023-04-10T12:47:18;95818.31;;;11.51;100.00
29169;BME280;16219;42.864;23.360;2023-04-10T12:50:03;95825.00;;;11.49;100.00
29169;BME280;16219;42.864;23.360;2023-04-10T12:52:31;95814.59;;;11.52;99.44
29169;BME280;16219;42.864;23.360;2023-04-10T12:55:08;95810.84;;;11.54;100.00
29169;BME280;16219;42.864;23.360;2023-04-10T12:57:35;95803.31;;;11.73;100.00
29169;BME280;16219;42.864;23.360;2023-04-10T13:00:05;95807.59;;;12.04;95.03
29169;BME280;16219;42.864;23.360;2023-04-10T13:02:34;95789.03;;;12.12;90.77
29169;BME280;16219;42.864;23.360;2023-04-10T13:05:02;95791.09;;;12.07;92.16
29169;BME280;16219;42.864;23.360;2023-04-10T13:07:30;95786.19;;;11.79;90.94
29169;BME280;16219;42.864;23.360;2023-04-10T13:09:57;95780.84;;;11.96;96.80
29169;BME280;16219;42.864;23.360;2023-04-10T13:12:24;95776.44;;;12.09;92.11